Terminal Aerodrome Forecast
Issued by NWS Charleston, SC

Home | Current Version | Previous Version | Text Only | Print | Product List | Glossary On
Versions: 1 2 3 4 5 6 7 8 9 10 11 12 13
000
FTUS42 KCHS 191700
TAFSAV
TAF
KSAV 191731Z 1918/2018 VRB04KT P6SM SCT080 BKN150
     FM200600 VRB03KT P6SM -RA SCT035 BKN070
     FM201300 01006KT 6SM -RA BR SCT009 OVC020=

USA.gov is the U.S. government's official web portal to all federal, state and local government web resources and services.